createdAt,value
2017-09-01T00:01:23.710Z,9.18
2017-09-01T00:03:49.794Z,7.90
2017-09-01T00:06:15.847Z,9.32
2017-09-01T00:08:41.860Z,7.00
2017-09-01T00:11:08.054Z,8.13
2017-09-01T00:13:34.116Z,7.68
2017-09-01T00:16:00.155Z,11.40
2017-09-01T00:18:26.533Z,8.85
2017-09-01T00:20:52.662Z,8.07
2017-09-01T00:23:18.686Z,10.38
2017-09-01T00:25:44.754Z,10.90
2017-09-01T00:28:11.592Z,8.98
2017-09-01T00:30:37.646Z,13.03
2017-09-01T00:33:03.728Z,9.15
2017-09-01T00:35:29.795Z,6.07
2017-09-01T00:37:55.886Z,9.80
2017-09-01T00:40:21.962Z,9.98
2017-09-01T00:42:47.978Z,10.23
2017-09-01T00:45:14.065Z,7.30
2017-09-01T00:47:40.107Z,8.80
2017-09-01T00:50:06.153Z,9.00
2017-09-01T00:52:32.485Z,10.03
2017-09-01T00:54:58.518Z,9.05
2017-09-01T00:57:24.653Z,10.23
2017-09-01T00:59:50.883Z,11.17
2017-09-01T01:02:16.934Z,8.02
2017-09-01T01:04:43.011Z,8.80
2017-09-01T01:07:09.111Z,8.48
2017-09-01T01:09:35.173Z,7.60
2017-09-01T01:12:01.190Z,7.70
2017-09-01T01:14:27.298Z,6.72
2017-09-01T01:16:53.326Z,10.52
2017-09-01T01:19:19.358Z,8.95
2017-09-01T01:21:45.421Z,9.68
2017-09-01T01:24:11.457Z,7.62
2017-09-01T01:26:37.590Z,8.10
2017-09-01T01:29:03.665Z,7.90
2017-09-01T01:31:29.694Z,7.80
2017-09-01T01:33:55.715Z,8.35
2017-09-01T01:36:21.978Z,10.77
2017-09-01T01:38:48.048Z,10.52
2017-09-01T01:41:14.119Z,9.85
2017-09-01T01:43:40.303Z,11.40
2017-09-01T01:46:06.349Z,10.68
2017-09-01T01:48:32.373Z,10.40
2017-09-01T01:50:58.702Z,9.38
2017-09-01T01:53:24.744Z,9.65
2017-09-01T01:55:56.335Z,10.33
2017-09-01T01:58:22.675Z,9.70
2017-09-01T02:00:48.701Z,10.23
2017-09-01T02:03:14.734Z,9.68
2017-09-01T02:05:40.802Z,9.93
2017-09-01T02:08:06.873Z,9.70
2017-09-01T02:10:33.249Z,6.70
2017-09-01T02:12:59.278Z,8.07
2017-09-01T02:15:25.339Z,11.38
2017-09-01T02:17:51.447Z,8.50
2017-09-01T02:20:17.554Z,12.40
2017-09-01T02:22:43.697Z,11.32
2017-09-01T02:25:09.977Z,10.25
2017-09-01T02:27:36.008Z,12.55
2017-09-01T02:30:02.030Z,6.43
2017-09-01T02:32:28.290Z,8.88
2017-09-01T02:34:54.360Z,10.80
2017-09-01T02:37:20.526Z,10.90
2017-09-01T02:39:46.923Z,8.63
2017-09-01T02:42:12.954Z,10.68
2017-09-01T02:44:38.985Z,11.68
2017-09-01T02:47:05.047Z,8.63
2017-09-01T02:49:31.070Z,11.70
2017-09-01T02:51:57.096Z,10.77
2017-09-01T02:54:23.439Z,10.53
2017-09-01T02:56:49.461Z,8.38
2017-09-01T02:59:15.486Z,8.52
2017-09-01T03:01:41.538Z,10.88
2017-09-01T03:04:07.598Z,9.82
2017-09-01T03:06:33.968Z,12.05
2017-09-01T03:08:59.990Z,11.07
2017-09-01T03:11:26.014Z,10.27
2017-09-01T03:13:52.063Z,7.87
2017-09-01T03:16:18.079Z,11.70
2017-09-01T03:18:44.238Z,9.75
2017-09-01T03:21:10.367Z,8.25
2017-09-01T03:23:36.412Z,9.57
2017-09-01T03:26:02.436Z,9.77
2017-09-01T03:28:28.489Z,10.37
2017-09-01T03:30:54.530Z,11.12
2017-09-01T03:33:20.563Z,9.00
2017-09-01T03:35:46.641Z,14.30
2017-09-01T03:38:12.674Z,9.90
2017-09-01T03:40:38.690Z,10.85
2017-09-01T03:43:05.077Z,10.00
2017-09-01T03:45:31.102Z,11.82
2017-09-01T03:47:57.136Z,10.63
2017-09-01T03:50:23.198Z,10.65
2017-09-01T03:52:49.245Z,13.57
2017-09-01T03:55:15.297Z,11.55
2017-09-01T03:57:41.369Z,11.12
2017-09-01T04:00:07.467Z,10.73
2017-09-01T04:02:33.514Z,10.17
2017-09-01T04:04:59.576Z,11.10
2017-09-01T04:07:25.610Z,14.57
2017-09-01T04:09:52.382Z,16.48
2017-09-01T04:12:18.499Z,9.52
2017-09-01T04:14:44.610Z,11.30
2017-09-01T04:17:10.682Z,11.30
2017-09-01T04:19:36.755Z,10.82
2017-09-01T04:22:02.828Z,12.75
2017-09-01T04:24:28.927Z,11.80
2017-09-01T04:26:54.980Z,11.85
2017-09-01T04:29:21.010Z,12.83
2017-09-01T04:31:47.033Z,9.35
2017-09-01T04:34:13.125Z,11.40
2017-09-01T04:36:39.218Z,14.13
2017-09-01T04:39:05.371Z,12.68
2017-09-01T04:41:31.436Z,14.65
2017-09-01T04:43:57.506Z,12.18
2017-09-01T04:46:23.582Z,15.17
2017-09-01T04:48:49.611Z,14.10
2017-09-01T04:51:16.677Z,12.55
2017-09-01T04:53:42.750Z,12.60
2017-09-01T04:56:09.098Z,17.65
2017-09-01T04:58:35.179Z,14.87
2017-09-01T05:01:01.294Z,13.98
2017-09-01T05:03:27.362Z,15.05
2017-09-01T05:05:53.378Z,11.57
2017-09-01T05:08:19.833Z,13.70
2017-09-01T05:10:45.886Z,18.70
2017-09-01T05:13:11.950Z,15.00
2017-09-01T05:15:38.214Z,12.75
2017-09-01T05:18:04.259Z,11.93
2017-09-01T05:20:30.310Z,14.55
2017-09-01T05:22:56.371Z,15.38
2017-09-01T05:25:22.402Z,14.27
2017-09-01T05:27:48.449Z,15.27
2017-09-01T05:30:14.548Z,17.25
2017-09-01T05:32:40.591Z,16.27
2017-09-01T05:35:06.627Z,18.30
2017-09-01T05:37:32.694Z,13.98
2017-09-01T05:39:58.818Z,14.50
2017-09-01T05:42:24.840Z,14.35
2017-09-01T05:44:50.887Z,16.05
2017-09-01T05:47:16.955Z,18.85
2017-09-01T05:49:42.999Z,13.85
2017-09-01T05:52:09.113Z,17.35
2017-09-01T05:54:35.137Z,16.60
2017-09-01T05:57:01.176Z,16.70
2017-09-01T05:59:27.217Z,17.30
2017-09-01T06:01:53.236Z,13.57
2017-09-01T06:04:19.559Z,21.83
2017-09-01T06:06:45.618Z,18.77
2017-09-01T06:09:11.682Z,19.98
2017-09-01T06:11:37.734Z,16.62
2017-09-01T06:14:03.782Z,16.15
2017-09-01T06:16:29.830Z,19.23
2017-09-01T06:18:55.875Z,18.40
2017-09-01T06:21:21.926Z,15.48
2017-09-01T06:23:47.950Z,15.20
2017-09-01T06:26:13.974Z,18.70
2017-09-01T06:28:40.042Z,18.73
2017-09-01T06:31:06.066Z,15.00
2017-09-01T06:33:32.098Z,17.50
2017-09-01T06:35:58.461Z,22.45
2017-09-01T06:38:24.511Z,23.05
2017-09-01T06:40:50.586Z,22.00
2017-09-01T06:43:16.679Z,21.80
2017-09-01T06:45:42.706Z,15.87
2017-09-01T06:48:08.756Z,17.87
2017-09-01T06:50:34.813Z,11.88
2017-09-01T06:53:00.867Z,18.33
2017-09-01T06:55:26.881Z,23.55
2017-09-01T06:57:52.955Z,17.58
2017-09-01T07:00:18.979Z,15.57
2017-09-01T07:02:45.007Z,16.67
2017-09-01T07:05:11.062Z,22.48
2017-09-01T07:07:37.112Z,17.87
2017-09-01T07:10:03.156Z,19.83
2017-09-01T07:12:29.488Z,17.48
2017-09-01T07:14:55.565Z,17.48
2017-09-01T07:17:21.589Z,19.75
2017-09-01T07:19:47.656Z,16.87
2017-09-01T07:22:13.674Z,18.83
2017-09-01T07:24:39.736Z,12.68
2017-09-01T07:27:05.782Z,16.08
2017-09-01T07:29:31.818Z,13.85
2017-09-01T07:31:57.860Z,18.75
2017-09-01T07:34:24.110Z,14.30
2017-09-01T07:36:50.149Z,20.35
2017-09-01T07:39:16.173Z,16.10
2017-09-01T07:41:42.456Z,12.18
2017-09-01T07:44:08.486Z,15.25
2017-09-01T07:46:34.502Z,15.18
2017-09-01T07:49:00.569Z,14.07
2017-09-01T07:51:26.607Z,16.70
2017-09-01T07:53:52.656Z,19.37
2017-09-01T07:56:18.709Z,16.07
2017-09-01T07:58:44.735Z,14.35
2017-09-01T08:01:10.758Z,14.90
2017-09-01T08:03:37.151Z,15.60
2017-09-01T08:06:03.182Z,14.50
2017-09-01T08:08:29.218Z,17.20
2017-09-01T08:10:55.266Z,14.52
2017-09-01T08:13:21.305Z,13.00
2017-09-01T08:15:47.573Z,12.05
2017-09-01T08:18:13.606Z,15.40
2017-09-01T08:20:39.635Z,11.18
2017-09-01T08:23:05.705Z,13.23
2017-09-01T08:25:31.724Z,12.95
2017-09-01T08:27:58.091Z,11.27
2017-09-01T08:30:24.113Z,14.90
2017-09-01T08:32:50.139Z,11.10
2017-09-01T08:35:16.463Z,17.23
2017-09-01T08:37:42.469Z,8.80
2017-09-01T08:40:08.486Z,11.57
2017-09-01T08:42:34.941Z,14.05
2017-09-01T08:45:00.962Z,11.32
2017-09-01T08:47:34.356Z,9.87
2017-09-01T08:50:00.409Z,10.55
2017-09-01T08:52:26.450Z,11.48
2017-09-01T08:54:52.498Z,12.00
2017-09-01T08:57:18.527Z,9.57
2017-09-01T08:59:44.539Z,13.43
2017-09-01T09:02:10.583Z,22.27
2017-09-01T09:04:36.812Z,436.30
2017-09-01T09:07:02.842Z,174.95
2017-09-01T09:09:28.859Z,109.25
2017-09-01T09:11:55.074Z,19.23
2017-09-01T09:14:21.096Z,11.87
2017-09-01T09:16:47.123Z,8.25
2017-09-01T09:19:13.166Z,12.30
2017-09-01T09:21:39.194Z,10.25
2017-09-01T09:24:05.210Z,9.93
2017-09-01T09:26:31.258Z,9.32
2017-09-01T09:28:57.274Z,11.60
2017-09-01T09:31:23.318Z,8.68
2017-09-01T09:33:49.366Z,8.50
2017-09-01T09:36:15.391Z,10.50
2017-09-01T09:38:41.477Z,9.82
2017-09-01T09:41:07.513Z,7.82
2017-09-01T09:43:33.866Z,8.50
2017-09-01T09:45:59.907Z,7.03
2017-09-01T09:48:25.937Z,9.20
2017-09-01T09:50:51.958Z,13.32
2017-09-01T09:53:17.973Z,9.45
2017-09-01T09:55:44.042Z,9.40
2017-09-01T09:58:10.079Z,11.68
2017-09-01T10:00:36.123Z,10.73
2017-09-01T10:03:02.367Z,8.80
2017-09-01T10:05:28.398Z,9.10
2017-09-01T10:07:54.531Z,9.93
2017-09-01T10:10:20.609Z,9.73
2017-09-01T10:12:46.658Z,9.57
2017-09-01T10:15:12.717Z,10.43
2017-09-01T10:17:38.781Z,8.07
2017-09-01T10:20:04.817Z,7.68
2017-09-01T10:22:30.825Z,9.85
2017-09-01T10:24:56.898Z,5.80
2017-09-01T10:27:22.926Z,7.62
2017-09-01T10:29:48.949Z,6.82
2017-09-01T10:32:15.033Z,6.68
2017-09-01T10:34:41.038Z,5.50
2017-09-01T10:37:07.063Z,7.57
2017-09-01T10:39:33.110Z,6.60
2017-09-01T10:41:59.131Z,5.78
2017-09-01T10:44:25.198Z,6.05
2017-09-01T10:46:51.443Z,8.38
2017-09-01T10:52:38.539Z,7.40
2017-09-01T10:55:17.042Z,8.30
2017-09-01T10:57:55.806Z,7.43
2017-09-01T11:00:21.827Z,7.93
2017-09-01T11:02:47.854Z,7.10
2017-09-01T11:05:13.898Z,7.22
2017-09-01T11:07:39.915Z,8.27
2017-09-01T11:10:05.943Z,7.63
2017-09-01T11:12:31.989Z,7.57
2017-09-01T11:14:58.009Z,6.40
2017-09-01T11:17:24.034Z,7.43
2017-09-01T11:19:58.178Z,7.45
2017-09-01T11:22:30.238Z,8.98
2017-09-01T11:24:56.295Z,6.90
2017-09-01T11:27:22.722Z,6.03
2017-09-01T11:29:48.742Z,5.97
2017-09-01T11:32:14.784Z,6.30
2017-09-01T11:34:40.801Z,7.28
2017-09-01T11:37:06.814Z,8.82
2017-09-01T11:39:32.872Z,7.70
2017-09-01T11:41:58.870Z,8.32
2017-09-01T11:44:24.902Z,10.02
2017-09-01T11:46:51.462Z,7.60
2017-09-01T11:49:17.583Z,10.23
2017-09-01T11:51:43.666Z,7.22
2017-09-01T11:54:10.066Z,11.30
2017-09-01T11:56:36.115Z,8.10
2017-09-01T11:59:02.166Z,9.48
2017-09-01T12:01:28.250Z,7.22
2017-09-01T12:03:54.259Z,9.00
2017-09-01T12:06:20.272Z,7.40
2017-09-01T12:08:46.345Z,10.27
2017-09-01T12:11:12.435Z,5.47
2017-09-01T12:13:38.450Z,8.93
2017-09-01T12:16:04.479Z,7.80
2017-09-01T12:18:30.503Z,7.43
2017-09-01T12:20:56.534Z,8.38
2017-09-01T12:23:22.828Z,8.80
2017-09-01T12:25:48.855Z,6.30
2017-09-01T12:28:14.870Z,7.10
2017-09-01T12:30:40.921Z,6.45
2017-09-01T12:33:06.941Z,9.93
2017-09-01T12:35:32.958Z,6.70
2017-09-01T12:37:59.000Z,5.70
2017-09-01T12:40:25.022Z,7.60
2017-09-01T12:42:51.050Z,5.25
2017-09-01T12:45:17.326Z,7.85
2017-09-01T12:47:43.700Z,7.45
2017-09-01T12:50:09.762Z,9.73
2017-09-01T12:52:35.815Z,12.90
2017-09-01T12:55:01.854Z,9.43
2017-09-01T12:57:27.946Z,6.30
2017-09-01T12:59:54.289Z,10.83
2017-09-01T13:02:20.307Z,9.50
2017-09-01T13:04:46.340Z,7.57
2017-09-01T13:07:12.746Z,5.95
2017-09-01T13:09:38.787Z,6.47
2017-09-01T13:12:04.871Z,8.77
2017-09-01T13:14:30.941Z,9.30
2017-09-01T13:16:56.960Z,11.48
2017-09-01T13:19:22.986Z,7.72
2017-09-01T13:21:49.420Z,8.60
2017-09-01T13:24:15.435Z,8.93
2017-09-01T13:26:41.457Z,8.20
2017-09-01T13:29:07.536Z,6.72
2017-09-01T13:31:33.575Z,6.72
2017-09-01T13:33:59.620Z,6.32
2017-09-01T13:36:25.670Z,6.75
2017-09-01T13:38:51.690Z,4.18
2017-09-01T13:41:17.724Z,6.60
2017-09-01T13:43:43.751Z,6.27
2017-09-01T13:46:09.799Z,8.65
2017-09-01T13:48:36.199Z,6.80
2017-09-01T13:51:02.259Z,8.55
2017-09-01T13:53:28.297Z,8.70
2017-09-01T13:55:54.326Z,7.50
2017-09-01T13:58:20.339Z,8.30
2017-09-01T14:00:46.353Z,7.07
2017-09-01T14:03:12.406Z,8.35
2017-09-01T14:05:38.429Z,10.43
2017-09-01T14:08:04.477Z,9.50
2017-09-01T14:10:30.586Z,7.73
2017-09-01T14:12:56.611Z,9.77
2017-09-01T14:15:23.845Z,9.70
2017-09-01T14:17:49.961Z,11.10
2017-09-01T14:20:15.982Z,7.15
2017-09-01T14:22:42.001Z,10.02
2017-09-01T14:25:08.050Z,9.60
2017-09-01T14:27:34.092Z,6.32
2017-09-01T14:30:00.138Z,7.23
2017-09-01T14:32:26.352Z,6.68
2017-09-01T14:34:52.373Z,7.80
2017-09-01T14:37:18.459Z,6.82
2017-09-01T14:40:05.470Z,6.43
2017-09-01T14:42:31.772Z,11.93
2017-09-01T14:44:57.847Z,9.93
2017-09-01T14:47:24.328Z,23.83
2017-09-01T14:49:50.900Z,10.65
2017-09-01T14:52:19.473Z,11.18
2017-09-01T14:54:47.444Z,10.90
2017-09-01T14:57:13.505Z,9.45
2017-09-01T14:59:40.270Z,6.53
2017-09-01T15:02:06.444Z,16.37
2017-09-01T15:04:32.496Z,10.37
2017-09-01T15:06:58.890Z,10.20
2017-09-01T15:09:29.243Z,7.25
2017-09-01T15:11:55.666Z,6.40
2017-09-01T15:14:21.840Z,8.13
2017-09-01T15:16:48.120Z,7.80
2017-09-01T15:19:14.159Z,12.02
2017-09-01T15:21:40.195Z,5.55
2017-09-01T15:24:06.287Z,6.17
2017-09-01T15:26:32.330Z,7.80
2017-09-01T15:28:58.352Z,8.30
2017-09-01T15:31:24.396Z,6.00
2017-09-01T15:33:50.422Z,7.83
2017-09-01T15:36:16.448Z,7.40
2017-09-01T15:38:42.782Z,4.37
2017-09-01T15:41:08.838Z,5.95
2017-09-01T15:43:34.867Z,7.33
2017-09-01T15:46:01.170Z,7.10
2017-09-01T15:48:27.202Z,6.60
2017-09-01T15:50:53.225Z,5.85
2017-09-01T15:53:19.466Z,4.70
2017-09-01T15:55:45.500Z,5.12
2017-09-01T15:58:11.533Z,6.93
2017-09-01T16:00:37.842Z,7.20
2017-09-01T16:03:03.883Z,7.45
2017-09-01T16:05:29.910Z,5.50
2017-09-01T16:07:55.975Z,6.32
2017-09-01T16:10:22.070Z,8.82
2017-09-01T16:12:48.114Z,9.73
2017-09-01T16:15:14.188Z,7.93
2017-09-01T16:17:40.406Z,6.60
2017-09-01T16:20:06.428Z,6.28
2017-09-01T16:22:32.442Z,4.35
2017-09-01T16:24:58.546Z,7.78
2017-09-01T16:27:24.580Z,6.07
2017-09-01T16:29:50.626Z,6.12
2017-09-01T16:32:16.666Z,10.17
2017-09-01T16:34:42.698Z,7.75
2017-09-01T16:37:08.721Z,7.45
2017-09-01T16:39:34.766Z,10.65
2017-09-01T16:42:00.813Z,8.52
2017-09-01T16:44:26.838Z,8.73
2017-09-01T16:46:52.890Z,6.43
2017-09-01T16:49:18.913Z,6.87
2017-09-01T16:51:44.942Z,7.65
2017-09-01T16:54:11.017Z,7.47
2017-09-01T16:56:37.034Z,8.68
2017-09-01T16:59:03.055Z,9.55
2017-09-01T17:01:29.135Z,6.85
2017-09-01T17:03:55.166Z,9.50
2017-09-01T17:06:21.203Z,8.50
2017-09-01T17:08:47.254Z,7.15
2017-09-01T17:11:13.271Z,5.30
2017-09-01T17:13:39.315Z,5.87
2017-09-01T17:16:05.733Z,8.27
2017-09-01T17:18:31.790Z,6.37
2017-09-01T17:20:57.838Z,7.60
2017-09-01T17:23:24.087Z,9.93
2017-09-01T17:25:50.130Z,6.75
2017-09-01T17:28:16.167Z,6.70
2017-09-01T17:30:42.257Z,8.10
2017-09-01T17:33:08.280Z,5.90
2017-09-01T17:35:34.318Z,6.95
2017-09-01T17:38:00.522Z,7.37
2017-09-01T17:40:26.547Z,6.37
2017-09-01T17:42:52.564Z,5.40
2017-09-01T17:45:18.902Z,7.78
2017-09-01T17:47:44.936Z,8.80
2017-09-01T17:50:10.970Z,10.52
2017-09-01T17:52:37.275Z,9.35
2017-09-01T17:55:03.566Z,7.12
2017-09-01T17:57:29.619Z,7.10
2017-09-01T17:59:55.669Z,8.77
2017-09-01T18:02:21.742Z,8.50
2017-09-01T18:04:47.811Z,6.43
2017-09-01T18:07:14.214Z,7.12
2017-09-01T18:09:40.239Z,9.60
2017-09-01T18:12:06.340Z,7.78
2017-09-01T18:14:32.376Z,9.07
2017-09-01T18:16:58.420Z,10.55
2017-09-01T18:19:24.446Z,7.45
2017-09-01T18:21:50.490Z,8.77
2017-09-01T18:24:16.554Z,7.25
2017-09-01T18:26:42.614Z,8.10
2017-09-01T18:29:08.638Z,8.87
2017-09-01T18:31:34.986Z,8.35
2017-09-01T18:34:01.094Z,6.75
2017-09-01T18:36:27.135Z,6.78
2017-09-01T18:38:53.175Z,10.68
2017-09-01T18:41:19.235Z,9.68
2017-09-01T18:43:45.262Z,12.75
2017-09-01T18:46:11.305Z,8.50
2017-09-01T18:48:37.335Z,10.90
2017-09-01T18:51:03.622Z,9.02
2017-09-01T18:53:29.719Z,10.48
2017-09-01T18:55:55.743Z,9.15
2017-09-01T18:58:21.995Z,9.00
2017-09-01T19:00:48.018Z,9.80
2017-09-01T19:03:14.052Z,12.70
2017-09-01T19:05:40.104Z,10.87
2017-09-01T19:08:06.149Z,15.05
2017-09-01T19:10:32.172Z,10.45
2017-09-01T19:12:58.446Z,9.52
2017-09-01T19:15:24.499Z,13.23
2017-09-01T19:17:50.523Z,12.82
2017-09-01T19:20:16.601Z,8.90
2017-09-01T19:22:42.643Z,12.85
2017-09-01T19:25:08.671Z,10.97
2017-09-01T19:27:34.743Z,11.50
2017-09-01T19:30:00.794Z,10.40
2017-09-01T19:32:26.829Z,12.35
2017-09-01T19:34:52.873Z,12.53
2017-09-01T19:37:18.923Z,13.05
2017-09-01T19:39:44.974Z,11.87
2017-09-01T19:42:11.095Z,11.80
2017-09-01T19:44:37.127Z,10.07
2017-09-01T19:47:03.202Z,10.05
2017-09-01T19:49:29.456Z,12.10
2017-09-01T19:51:55.486Z,11.23
2017-09-01T19:54:21.551Z,10.35
2017-09-01T19:56:47.922Z,10.75
2017-09-01T19:59:14.023Z,9.48
2017-09-01T20:01:40.058Z,12.13
2017-09-01T20:04:06.110Z,12.18
2017-09-01T20:06:32.148Z,8.80
2017-09-01T20:08:58.198Z,9.07
2017-09-01T20:11:24.294Z,8.93
2017-09-01T20:13:50.434Z,12.27
2017-09-01T20:16:16.485Z,8.40
2017-09-01T20:18:42.521Z,11.10
2017-09-01T20:21:08.548Z,103.57
2017-09-01T20:23:34.783Z,132.40
2017-09-01T20:26:00.828Z,245.73
2017-09-01T20:28:26.862Z,148.00
2017-09-01T20:30:52.963Z,150.07
2017-09-01T20:33:19.030Z,93.25
2017-09-01T20:35:45.095Z,82.50
2017-09-01T20:38:11.156Z,266.10
2017-09-01T20:40:37.205Z,167.57
2017-09-01T20:43:03.245Z,281.33
2017-09-01T20:45:29.306Z,162.12
2017-09-01T20:47:55.346Z,123.82
2017-09-01T20:50:21.401Z,95.62
2017-09-01T20:52:47.456Z,48.45
2017-09-01T20:55:13.508Z,13.13
2017-09-01T20:57:39.562Z,13.73
2017-09-01T21:00:05.600Z,10.27
2017-09-01T21:02:31.643Z,9.77
2017-09-01T21:04:57.778Z,9.83
2017-09-01T21:07:23.856Z,8.60
2017-09-01T21:09:49.895Z,15.90
2017-09-01T21:12:16.132Z,10.98
2017-09-01T21:14:42.173Z,11.55
2017-09-01T21:17:08.206Z,12.75
2017-09-01T21:19:34.426Z,14.23
2017-09-01T21:22:00.472Z,11.57
2017-09-01T21:24:26.526Z,319.90
2017-09-01T21:26:52.591Z,380.40
2017-09-01T21:29:18.754Z,72.35
2017-09-01T21:31:44.940Z,12.77
2017-09-01T21:34:11.274Z,11.90
2017-09-01T21:36:37.426Z,12.05
2017-09-01T21:39:03.754Z,12.37
2017-09-01T21:41:29.990Z,9.77
2017-09-01T21:43:56.938Z,12.07
2017-09-01T21:46:23.089Z,10.70
2017-09-01T21:48:49.286Z,14.20
2017-09-01T21:51:15.460Z,10.52
2017-09-01T21:53:41.621Z,8.88
2017-09-01T21:56:07.866Z,10.27
2017-09-01T21:58:34.071Z,9.53
2017-09-01T22:01:12.512Z,7.97
2017-09-01T22:03:38.654Z,9.00
2017-09-01T22:06:04.932Z,7.40
2017-09-01T22:08:31.152Z,8.40
2017-09-01T22:10:57.340Z,9.05
2017-09-01T22:13:23.449Z,8.30
2017-09-01T22:15:49.675Z,8.98
2017-09-01T22:18:15.936Z,11.10
2017-09-01T22:20:42.146Z,9.45
2017-09-01T22:23:09.293Z,8.50
2017-09-01T22:25:35.374Z,9.13
2017-09-01T22:28:01.522Z,9.50
2017-09-01T22:30:27.570Z,9.70
2017-09-01T22:32:53.587Z,9.87
2017-09-01T22:35:19.615Z,9.93
2017-09-01T22:37:45.826Z,8.23
2017-09-01T22:40:11.846Z,10.05
2017-09-01T22:42:37.858Z,9.05
2017-09-01T22:45:03.910Z,13.07
2017-09-01T22:47:29.930Z,11.15
2017-09-01T22:49:55.966Z,7.47
2017-09-01T22:52:22.007Z,8.50
2017-09-01T22:54:48.046Z,9.63
2017-09-01T22:57:14.098Z,9.07
2017-09-01T22:59:40.316Z,8.35
2017-09-01T23:02:06.333Z,6.90
2017-09-01T23:04:32.361Z,9.35
2017-09-01T23:06:58.920Z,6.28
2017-09-01T23:09:24.963Z,6.50
2017-09-01T23:11:51.022Z,7.70
2017-09-01T23:14:17.059Z,9.30
2017-09-01T23:16:43.079Z,7.10
2017-09-01T23:19:09.100Z,8.20
2017-09-01T23:21:35.848Z,9.38
2017-09-01T23:24:01.886Z,5.90
2017-09-01T23:26:27.917Z,6.50
2017-09-01T23:28:53.945Z,6.05
2017-09-01T23:31:19.965Z,6.75
2017-09-01T23:33:46.032Z,8.75
2017-09-01T23:36:12.053Z,6.05
2017-09-01T23:38:38.050Z,7.22
2017-09-01T23:41:04.076Z,5.20
2017-09-01T23:43:30.085Z,8.15
2017-09-01T23:45:56.136Z,7.93
2017-09-01T23:48:22.166Z,7.75
2017-09-01T23:50:48.213Z,9.35
2017-09-01T23:53:14.232Z,9.00
2017-09-01T23:55:40.254Z,8.82
2017-09-01T23:58:06.292Z,7.50
